DLH501 EDDF-VCBI
Flight info
| Callsign | DLH501 |
|---|---|
| Flight time | N/A |
| Altitude | 35000 |
| Route | SULUS4D/07C SULUS Z650 NOGRA DCT VEMUT DCT BUDEX DCT PESAT DCT TEGRI DCT ARTAT UP975 EZS UG8 SORAR/N0471F370 UG8 OTKEP UM688 KEDIM DCT SISIN UM688 SIDAD P975 LONOS P708 OVONA/N0490F350 N318 LABRI/N0480F370 N318 GEVED/N0475F390 N318 TOLDA P570 EMURU M300 VASTU P895 BIKOK BIKOK1A |
| Aircraft | A339/H-SADE1E2E3GHIJ3J5M1P2RWXY/LB2D1 |
Departure
| Time | N/A |
|---|---|
| Airport | Frankfurt Main Airport (EDDF) |
Arrival
| Time | 2026-05-01 12:26 |
|---|---|
| Airport | Bandaranaike International Colombo Airport (VCBI) |
| Time | Latitude | Longitude | Altitude | Speed | Heading |
|---|---|---|---|---|---|
| 2026-05-01 10:14 | 18.22796 | 64.82940 | 38862 ft | 345 kts | 122° |
| 2026-05-01 10:14 | 18.21541 | 64.84916 | 38862 ft | 334 kts | 122° |
| 2026-05-01 10:14 | 18.19481 | 64.88158 | 38858 ft | 315 kts | 122° |
| 2026-05-01 10:15 | 18.18490 | 64.89717 | 38860 ft | 304 kts | 122° |
| 2026-05-01 10:15 | 18.18086 | 64.90352 | 38856 ft | 300 kts | 122° |
| 2026-05-01 10:15 | 18.17897 | 64.90649 | 38857 ft | 297 kts | 122° |
| 2026-05-01 10:16 | 18.16880 | 64.92248 | 38843 ft | 285 kts | 122° |
| 2026-05-01 10:16 | 18.15715 | 64.94096 | 37243 ft | 328 kts | 122° |
| 2026-05-01 10:16 | 18.12673 | 64.99145 | 34463 ft | 440 kts | 122° |
| 2026-05-01 10:17 | 18.11059 | 65.01883 | 34307 ft | 451 kts | 121° |
| 2026-05-01 10:17 | 18.07831 | 65.07497 | 34939 ft | 447 kts | 121° |
| 2026-05-01 10:17 | 18.06069 | 65.10192 | 35094 ft | 450 kts | 127° |
| 2026-05-01 10:18 | 18.02233 | 65.15489 | 35222 ft | 461 kts | 126° |
| 2026-05-01 10:18 | 18.00358 | 65.18245 | 35238 ft | 467 kts | 124° |
| 2026-05-01 10:19 | 17.96689 | 65.23897 | 35435 ft | 476 kts | 123° |
| 2026-05-01 10:19 | 17.94838 | 65.26796 | 35542 ft | 480 kts | 123° |
| 2026-05-01 10:19 | 17.92980 | 65.29709 | 35780 ft | 480 kts | 123° |
| 2026-05-01 10:20 | 17.89253 | 65.35543 | 36246 ft | 482 kts | 123° |
| 2026-05-01 10:20 | 17.87382 | 65.38465 | 36499 ft | 482 kts | 123° |
| 2026-05-01 10:20 | 17.85510 | 65.41388 | 36747 ft | 483 kts | 123° |
| 2026-05-01 10:20 | 17.83636 | 65.44313 | 36996 ft | 483 kts | 123° |
| 2026-05-01 10:21 | 17.81784 | 65.47202 | 37246 ft | 483 kts | 123° |
| 2026-05-01 10:21 | 17.78030 | 65.53054 | 37769 ft | 483 kts | 123° |
| 2026-05-01 10:21 | 17.76154 | 65.55977 | 38019 ft | 483 kts | 123° |
| 2026-05-01 10:22 | 17.72413 | 65.61801 | 38544 ft | 482 kts | 123° |
| 2026-05-01 10:22 | 17.68664 | 65.67634 | 38852 ft | 483 kts | 123° |
| 2026-05-01 10:23 | 17.66775 | 65.70570 | 38858 ft | 487 kts | 123° |
| 2026-05-01 10:23 | 17.61072 | 65.79432 | 38858 ft | 494 kts | 123° |
| 2026-05-01 10:24 | 17.53582 | 65.91613 | 38858 ft | 499 kts | 122° |
| 2026-05-01 10:25 | 17.46076 | 66.03785 | 38856 ft | 499 kts | 122° |
| 2026-05-01 10:26 | 17.42305 | 66.09882 | 38860 ft | 499 kts | 122° |
| 2026-05-01 10:27 | 17.34807 | 66.22054 | 38859 ft | 499 kts | 122° |
| 2026-05-01 10:28 | 17.29153 | 66.31194 | 38859 ft | 499 kts | 122° |
| 2026-05-01 10:28 | 17.23476 | 66.40317 | 38851 ft | 499 kts | 122° |
| 2026-05-01 10:29 | 17.17287 | 66.50264 | 38854 ft | 498 kts | 122° |
| 2026-05-01 10:30 | 17.07472 | 66.66007 | 38854 ft | 497 kts | 122° |
| 2026-05-01 10:31 | 16.99923 | 66.78082 | 38853 ft | 495 kts | 122° |
| 2026-05-01 10:32 | 16.94315 | 66.87078 | 38855 ft | 494 kts | 122° |
| 2026-05-01 10:33 | 16.86793 | 66.99082 | 38855 ft | 493 kts | 123° |
| 2026-05-01 10:34 | 16.81152 | 67.08070 | 38852 ft | 493 kts | 123° |
| 2026-05-01 10:34 | 16.77421 | 67.14012 | 38855 ft | 493 kts | 123° |
| 2026-05-01 10:35 | 16.71782 | 67.22978 | 38855 ft | 492 kts | 123° |
| 2026-05-01 10:35 | 16.68660 | 67.27940 | 38858 ft | 492 kts | 123° |
| 2026-05-01 10:36 | 16.62416 | 67.37852 | 38857 ft | 492 kts | 123° |
| 2026-05-01 10:37 | 16.58658 | 67.43811 | 38856 ft | 492 kts | 123° |
| 2026-05-01 10:37 | 16.53654 | 67.51738 | 38858 ft | 492 kts | 123° |
| 2026-05-01 10:38 | 16.49894 | 67.57689 | 38856 ft | 492 kts | 123° |
| 2026-05-01 10:38 | 16.45521 | 67.64603 | 38857 ft | 491 kts | 123° |
| 2026-05-01 10:39 | 16.41766 | 67.70538 | 38858 ft | 491 kts | 123° |
| 2026-05-01 10:39 | 16.38642 | 67.75468 | 38856 ft | 490 kts | 123° |
| 2026-05-01 10:40 | 16.34882 | 67.81388 | 38853 ft | 490 kts | 123° |
| 2026-05-01 10:40 | 16.30516 | 67.88266 | 38854 ft | 490 kts | 123° |
| 2026-05-01 10:41 | 16.26760 | 67.94183 | 38854 ft | 490 kts | 123° |
| 2026-05-01 10:42 | 16.21790 | 68.02074 | 38854 ft | 490 kts | 123° |
| 2026-05-01 10:42 | 16.18065 | 68.08004 | 38854 ft | 489 kts | 123° |
| 2026-05-01 10:43 | 16.14344 | 68.13918 | 38853 ft | 488 kts | 123° |
| 2026-05-01 10:43 | 16.10621 | 68.19826 | 38857 ft | 488 kts | 123° |
| 2026-05-01 10:44 | 16.06926 | 68.25686 | 38855 ft | 488 kts | 123° |
| 2026-05-01 10:44 | 16.03203 | 68.31583 | 38853 ft | 488 kts | 123° |
| 2026-05-01 10:45 | 15.99483 | 68.37472 | 38851 ft | 487 kts | 124° |
| 2026-05-01 10:45 | 15.95763 | 68.43356 | 38853 ft | 487 kts | 123° |
| 2026-05-01 10:46 | 15.92039 | 68.49241 | 38853 ft | 487 kts | 123° |
| 2026-05-01 10:46 | 15.88344 | 68.55077 | 38853 ft | 486 kts | 123° |
| 2026-05-01 10:47 | 15.84629 | 68.60940 | 38850 ft | 486 kts | 123° |
| 2026-05-01 10:47 | 15.80916 | 68.66794 | 38853 ft | 485 kts | 124° |
| 2026-05-01 10:48 | 15.77200 | 68.72648 | 38852 ft | 485 kts | 123° |
| 2026-05-01 10:48 | 15.71912 | 68.80970 | 38854 ft | 485 kts | 124° |
| 2026-05-01 10:49 | 15.64532 | 68.92570 | 38850 ft | 485 kts | 124° |
| 2026-05-01 10:49 | 15.57117 | 69.04208 | 38852 ft | 483 kts | 123° |
| 2026-05-01 10:50 | 15.49719 | 69.15801 | 38853 ft | 482 kts | 123° |
| 2026-05-01 10:50 | 15.42323 | 69.27372 | 38855 ft | 482 kts | 123° |
| 2026-05-01 10:51 | 15.34962 | 69.38873 | 38852 ft | 482 kts | 123° |
| 2026-05-01 10:51 | 15.27562 | 69.50416 | 38854 ft | 481 kts | 123° |
| 2026-05-01 10:52 | 15.20165 | 69.61938 | 38850 ft | 481 kts | 123° |
| 2026-05-01 10:52 | 15.12762 | 69.73453 | 38851 ft | 481 kts | 123° |
| 2026-05-01 10:53 | 15.05459 | 69.84930 | 38851 ft | 480 kts | 123° |
| 2026-05-01 10:53 | 14.98122 | 69.96489 | 38846 ft | 480 kts | 123° |
| 2026-05-01 10:54 | 14.91994 | 70.06122 | 38846 ft | 480 kts | 123° |
| 2026-05-01 10:54 | 14.88321 | 70.11889 | 38846 ft | 480 kts | 123° |
| 2026-05-01 10:55 | 14.84671 | 70.17615 | 38847 ft | 480 kts | 123° |
| 2026-05-01 10:55 | 14.80993 | 70.23383 | 38844 ft | 481 kts | 123° |
| 2026-05-01 10:56 | 14.77310 | 70.29154 | 38841 ft | 481 kts | 123° |
| 2026-05-01 10:56 | 14.73630 | 70.34916 | 38844 ft | 481 kts | 123° |
| 2026-05-01 10:57 | 14.69974 | 70.40635 | 38845 ft | 480 kts | 123° |
| 2026-05-01 10:57 | 14.66294 | 70.46391 | 38845 ft | 480 kts | 123° |
| 2026-05-01 10:58 | 14.62612 | 70.52142 | 38846 ft | 480 kts | 123° |
| 2026-05-01 10:58 | 14.58928 | 70.57895 | 38845 ft | 481 kts | 123° |
| 2026-05-01 10:59 | 14.55237 | 70.63651 | 38845 ft | 481 kts | 122° |
| 2026-05-01 10:59 | 14.51572 | 70.69366 | 38846 ft | 481 kts | 123° |
| 2026-05-01 11:00 | 14.47877 | 70.75123 | 38842 ft | 481 kts | 122° |
| 2026-05-01 11:00 | 14.44181 | 70.80876 | 38844 ft | 481 kts | 123° |
| 2026-05-01 11:01 | 14.40482 | 70.86631 | 38845 ft | 481 kts | 122° |
| 2026-05-01 11:01 | 14.36780 | 70.92385 | 38842 ft | 482 kts | 122° |
| 2026-05-01 11:02 | 14.33109 | 70.98118 | 38843 ft | 482 kts | 122° |
| 2026-05-01 11:02 | 14.29457 | 71.03919 | 38843 ft | 482 kts | 122° |
| 2026-05-01 11:03 | 14.25803 | 71.09719 | 38842 ft | 483 kts | 122° |
| 2026-05-01 11:03 | 14.22139 | 71.15515 | 38842 ft | 482 kts | 122° |
| 2026-05-01 11:04 | 14.18473 | 71.21309 | 38843 ft | 483 kts | 122° |
| 2026-05-01 11:04 | 14.14808 | 71.27097 | 38843 ft | 482 kts | 122° |
| 2026-05-01 11:05 | 14.11170 | 71.32840 | 38841 ft | 482 kts | 122° |
| 2026-05-01 11:05 | 14.07511 | 71.38610 | 38842 ft | 481 kts | 122° |
| 2026-05-01 11:06 | 14.03854 | 71.44379 | 38846 ft | 481 kts | 122° |
| 2026-05-01 11:06 | 14.00193 | 71.50144 | 38843 ft | 481 kts | 122° |
| 2026-05-01 11:07 | 13.94699 | 71.58786 | 38843 ft | 481 kts | 122° |
| 2026-05-01 11:07 | 13.91032 | 71.64545 | 38842 ft | 481 kts | 122° |
| 2026-05-01 11:08 | 13.87357 | 71.70309 | 38842 ft | 481 kts | 122° |
| 2026-05-01 11:09 | 13.81878 | 71.78903 | 38843 ft | 481 kts | 122° |
| 2026-05-01 11:09 | 13.78213 | 71.84654 | 38843 ft | 480 kts | 122° |
| 2026-05-01 11:10 | 13.72720 | 71.93269 | 38844 ft | 480 kts | 122° |
| 2026-05-01 11:10 | 13.69044 | 71.99013 | 38840 ft | 481 kts | 123° |
| 2026-05-01 11:11 | 13.64949 | 72.04394 | 38843 ft | 482 kts | 128° |
| 2026-05-01 11:11 | 13.60716 | 72.09735 | 38843 ft | 482 kts | 128° |
| 2026-05-01 11:12 | 13.56494 | 72.15082 | 38842 ft | 482 kts | 128° |
| 2026-05-01 11:12 | 13.52271 | 72.20428 | 38839 ft | 481 kts | 128° |
| 2026-05-01 11:13 | 13.48050 | 72.25762 | 38840 ft | 481 kts | 128° |
| 2026-05-01 11:13 | 13.43860 | 72.31056 | 38839 ft | 481 kts | 128° |
| 2026-05-01 11:14 | 13.39638 | 72.36384 | 38841 ft | 481 kts | 128° |
| 2026-05-01 11:14 | 13.35419 | 72.41707 | 38841 ft | 481 kts | 128° |
| 2026-05-01 11:15 | 13.31196 | 72.47031 | 38843 ft | 481 kts | 128° |
| 2026-05-01 11:15 | 13.26974 | 72.52351 | 38845 ft | 481 kts | 128° |
| 2026-05-01 11:16 | 13.22750 | 72.57670 | 38840 ft | 480 kts | 128° |
| 2026-05-01 11:16 | 13.18530 | 72.62980 | 38840 ft | 480 kts | 128° |
| 2026-05-01 11:17 | 13.14307 | 72.68292 | 38840 ft | 480 kts | 128° |
| 2026-05-01 11:17 | 13.10112 | 72.73565 | 38840 ft | 480 kts | 128° |
| 2026-05-01 11:18 | 13.05888 | 72.78869 | 38840 ft | 480 kts | 128° |
| 2026-05-01 11:18 | 13.01664 | 72.84173 | 38836 ft | 480 kts | 128° |
| 2026-05-01 11:19 | 12.97435 | 72.89478 | 38838 ft | 480 kts | 128° |
| 2026-05-01 11:19 | 12.93206 | 72.94780 | 38838 ft | 480 kts | 128° |
| 2026-05-01 11:20 | 12.88975 | 73.00084 | 38836 ft | 480 kts | 128° |
| 2026-05-01 11:20 | 12.84771 | 73.05348 | 38838 ft | 480 kts | 128° |
| 2026-05-01 11:21 | 12.80540 | 73.10643 | 38835 ft | 480 kts | 128° |
| 2026-05-01 11:21 | 12.76309 | 73.15936 | 38837 ft | 480 kts | 128° |
| 2026-05-01 11:22 | 12.72077 | 73.21226 | 38838 ft | 480 kts | 128° |
| 2026-05-01 11:22 | 12.67843 | 73.26516 | 38835 ft | 480 kts | 128° |
| 2026-05-01 11:23 | 12.63609 | 73.31803 | 38838 ft | 480 kts | 128° |
| 2026-05-01 11:23 | 12.59402 | 73.37054 | 38842 ft | 480 kts | 128° |
| 2026-05-01 11:24 | 12.55168 | 73.42336 | 38836 ft | 480 kts | 128° |
| 2026-05-01 11:25 | 12.48835 | 73.50256 | 38835 ft | 479 kts | 128° |
| 2026-05-01 11:25 | 12.42496 | 73.58151 | 38834 ft | 479 kts | 128° |
| 2026-05-01 11:26 | 12.36182 | 73.66007 | 38833 ft | 479 kts | 128° |
| 2026-05-01 11:27 | 12.31950 | 73.71266 | 38836 ft | 479 kts | 128° |
| 2026-05-01 11:27 | 12.27714 | 73.76527 | 38836 ft | 479 kts | 128° |
| 2026-05-01 11:28 | 12.23482 | 73.81783 | 38831 ft | 479 kts | 128° |
| 2026-05-01 11:28 | 12.19249 | 73.87032 | 38830 ft | 478 kts | 129° |
| 2026-05-01 11:29 | 12.12918 | 73.94841 | 38831 ft | 478 kts | 129° |
| 2026-05-01 11:30 | 12.06579 | 74.02694 | 38833 ft | 478 kts | 128° |
| 2026-05-01 11:30 | 12.02348 | 74.07934 | 38834 ft | 478 kts | 128° |
| 2026-05-01 11:31 | 11.98116 | 74.13176 | 38835 ft | 478 kts | 128° |
| 2026-05-01 11:31 | 11.93881 | 74.18420 | 38831 ft | 478 kts | 129° |
| 2026-05-01 11:32 | 11.89650 | 74.23658 | 38831 ft | 478 kts | 129° |
| 2026-05-01 11:32 | 11.85447 | 74.28854 | 38831 ft | 478 kts | 129° |
| 2026-05-01 11:33 | 11.81218 | 74.34077 | 38831 ft | 477 kts | 129° |
| 2026-05-01 11:33 | 11.76987 | 74.39299 | 38830 ft | 478 kts | 129° |
| 2026-05-01 11:34 | 11.72753 | 74.44525 | 38835 ft | 478 kts | 128° |
| 2026-05-01 11:34 | 11.68516 | 74.49751 | 38834 ft | 478 kts | 128° |
| 2026-05-01 11:35 | 11.64275 | 74.54981 | 38833 ft | 478 kts | 128° |
| 2026-05-01 11:35 | 11.60060 | 74.60180 | 38832 ft | 479 kts | 129° |
| 2026-05-01 11:36 | 11.55805 | 74.65422 | 38832 ft | 480 kts | 129° |
| 2026-05-01 11:36 | 11.51536 | 74.70674 | 38831 ft | 481 kts | 129° |
| 2026-05-01 11:37 | 11.47261 | 74.75931 | 38834 ft | 482 kts | 129° |
| 2026-05-01 11:37 | 11.42983 | 74.81191 | 38835 ft | 482 kts | 129° |
| 2026-05-01 11:38 | 11.38703 | 74.86452 | 38835 ft | 482 kts | 129° |
| 2026-05-01 11:38 | 11.34451 | 74.91675 | 38834 ft | 482 kts | 130° |
| 2026-05-01 11:39 | 11.30200 | 74.96890 | 38833 ft | 482 kts | 130° |
| 2026-05-01 11:39 | 11.25943 | 75.02112 | 38833 ft | 482 kts | 130° |
| 2026-05-01 11:40 | 11.21654 | 75.07371 | 38834 ft | 483 kts | 129° |
| 2026-05-01 11:40 | 11.17359 | 75.12634 | 38834 ft | 483 kts | 129° |
| 2026-05-01 11:41 | 11.13063 | 75.17897 | 38834 ft | 483 kts | 129° |
| 2026-05-01 11:41 | 11.05872 | 75.26698 | 38832 ft | 484 kts | 129° |
| 2026-05-01 11:42 | 10.99587 | 75.34386 | 38831 ft | 483 kts | 130° |
| 2026-05-01 11:42 | 10.95282 | 75.39648 | 38831 ft | 484 kts | 129° |
| 2026-05-01 11:43 | 10.90969 | 75.44916 | 38835 ft | 485 kts | 129° |
| 2026-05-01 11:43 | 10.86653 | 75.50187 | 38832 ft | 485 kts | 129° |
| 2026-05-01 11:44 | 10.80177 | 75.58090 | 38833 ft | 485 kts | 129° |
| 2026-05-01 11:44 | 10.75888 | 75.63321 | 38833 ft | 485 kts | 129° |
| 2026-05-01 11:45 | 10.71570 | 75.68585 | 38835 ft | 485 kts | 129° |
| 2026-05-01 11:45 | 10.67248 | 75.73849 | 38835 ft | 485 kts | 129° |
| 2026-05-01 11:46 | 10.62930 | 75.79108 | 38832 ft | 485 kts | 129° |
| 2026-05-01 11:46 | 10.58602 | 75.84376 | 38834 ft | 486 kts | 129° |
| 2026-05-01 11:47 | 10.52971 | 75.91227 | 38836 ft | 489 kts | 129° |
| 2026-05-01 11:47 | 10.44298 | 76.01769 | 38834 ft | 490 kts | 129° |
| 2026-05-01 11:48 | 10.35560 | 76.12395 | 38829 ft | 490 kts | 129° |
| 2026-05-01 11:48 | 10.29310 | 76.19991 | 38829 ft | 488 kts | 129° |
| 2026-05-01 11:49 | 10.24955 | 76.25269 | 38827 ft | 487 kts | 129° |
| 2026-05-01 11:49 | 10.20611 | 76.30534 | 38828 ft | 486 kts | 129° |
| 2026-05-01 11:50 | 10.16302 | 76.35755 | 38829 ft | 485 kts | 128° |
| 2026-05-01 11:50 | 10.11963 | 76.40995 | 38830 ft | 485 kts | 129° |
| 2026-05-01 11:51 | 10.07609 | 76.46227 | 38828 ft | 485 kts | 129° |
| 2026-05-01 11:51 | 10.03263 | 76.51455 | 38829 ft | 485 kts | 129° |
| 2026-05-01 11:52 | 9.98913 | 76.56688 | 38829 ft | 485 kts | 129° |
| 2026-05-01 11:52 | 9.94559 | 76.61919 | 38830 ft | 485 kts | 129° |
| 2026-05-01 11:53 | 9.90231 | 76.67118 | 38851 ft | 485 kts | 129° |
| 2026-05-01 11:53 | 9.85586 | 76.72695 | 38841 ft | 485 kts | 129° |
| 2026-05-01 11:54 | 9.76869 | 76.83154 | 38867 ft | 486 kts | 129° |
| 2026-05-01 11:54 | 9.71133 | 76.90033 | 38860 ft | 487 kts | 129° |
| 2026-05-01 11:55 | 9.63326 | 76.99388 | 38879 ft | 488 kts | 129° |
| 2026-05-01 11:55 | 9.54544 | 77.09900 | 38884 ft | 488 kts | 129° |
| 2026-05-01 11:56 | 9.45763 | 77.20403 | 38883 ft | 488 kts | 129° |
| 2026-05-01 11:56 | 9.36970 | 77.30910 | 38868 ft | 489 kts | 129° |
| 2026-05-01 11:57 | 9.29660 | 77.39643 | 38836 ft | 489 kts | 129° |
| 2026-05-01 11:57 | 9.19439 | 77.51837 | 38836 ft | 487 kts | 128° |
| 2026-05-01 11:58 | 9.10689 | 77.62270 | 38804 ft | 486 kts | 129° |
| 2026-05-01 11:59 | 8.97546 | 77.77927 | 38791 ft | 487 kts | 129° |
| 2026-05-01 11:59 | 8.88820 | 77.88307 | 38776 ft | 487 kts | 129° |
| 2026-05-01 12:00 | 8.75704 | 78.03893 | 38772 ft | 484 kts | 128° |
| 2026-05-01 12:01 | 8.69025 | 78.11824 | 38778 ft | 484 kts | 128° |
| 2026-05-01 12:01 | 8.64656 | 78.17007 | 38780 ft | 484 kts | 128° |
| 2026-05-01 12:02 | 8.60324 | 78.22151 | 38789 ft | 484 kts | 129° |
| 2026-05-01 12:02 | 8.55956 | 78.27328 | 38799 ft | 484 kts | 128° |
| 2026-05-01 12:03 | 8.51591 | 78.32503 | 38808 ft | 483 kts | 128° |
| 2026-05-01 12:03 | 8.47242 | 78.37660 | 38807 ft | 482 kts | 129° |
| 2026-05-01 12:04 | 8.42893 | 78.42812 | 38814 ft | 482 kts | 129° |
| 2026-05-01 12:04 | 8.38547 | 78.47955 | 38815 ft | 481 kts | 128° |
| 2026-05-01 12:05 | 8.34236 | 78.53062 | 38818 ft | 481 kts | 129° |
| 2026-05-01 12:05 | 8.27797 | 78.60807 | 38645 ft | 477 kts | 123° |
| 2026-05-01 12:06 | 8.25889 | 78.63526 | 37906 ft | 473 kts | 123° |
| 2026-05-01 12:06 | 8.23988 | 78.66254 | 36505 ft | 478 kts | 123° |
| 2026-05-01 12:06 | 8.22054 | 78.69026 | 34999 ft | 490 kts | 124° |
| 2026-05-01 12:06 | 8.20077 | 78.71848 | 33280 ft | 496 kts | 125° |
| 2026-05-01 12:07 | 8.18071 | 78.74703 | 31446 ft | 501 kts | 125° |
| 2026-05-01 12:07 | 8.16058 | 78.77561 | 29977 ft | 497 kts | 125° |
| 2026-05-01 12:07 | 8.14078 | 78.80374 | 28768 ft | 486 kts | 125° |
| 2026-05-01 12:07 | 8.12139 | 78.83130 | 27895 ft | 475 kts | 125° |
| 2026-05-01 12:08 | 8.10248 | 78.85817 | 27328 ft | 465 kts | 125° |
| 2026-05-01 12:08 | 8.08412 | 78.88424 | 27013 ft | 445 kts | 125° |
| 2026-05-01 12:08 | 8.06637 | 78.90945 | 26638 ft | 438 kts | 125° |
| 2026-05-01 12:08 | 8.04887 | 78.93432 | 25973 ft | 442 kts | 125° |
| 2026-05-01 12:09 | 8.03101 | 78.95968 | 25305 ft | 444 kts | 125° |
| 2026-05-01 12:09 | 8.01324 | 78.98491 | 24996 ft | 436 kts | 125° |
| 2026-05-01 12:09 | 7.99572 | 79.00978 | 24852 ft | 435 kts | 126° |
| 2026-05-01 12:09 | 7.97822 | 79.03461 | 24574 ft | 433 kts | 126° |
| 2026-05-01 12:10 | 7.96070 | 79.05948 | 23858 ft | 437 kts | 126° |
| 2026-05-01 12:10 | 7.92503 | 79.11007 | 21922 ft | 443 kts | 126° |
| 2026-05-01 12:10 | 7.90730 | 79.13520 | 21010 ft | 436 kts | 125° |
| 2026-05-01 12:11 | 7.87266 | 79.18429 | 18998 ft | 421 kts | 125° |
| 2026-05-01 12:11 | 7.85603 | 79.20786 | 18452 ft | 403 kts | 125° |
| 2026-05-01 12:11 | 7.84011 | 79.23043 | 17872 ft | 389 kts | 124° |
| 2026-05-01 12:12 | 7.82468 | 79.25226 | 17282 ft | 375 kts | 124° |
| 2026-05-01 12:12 | 7.80986 | 79.27321 | 16692 ft | 369 kts | 123° |
| 2026-05-01 12:12 | 7.79506 | 79.29418 | 16105 ft | 365 kts | 124° |
| 2026-05-01 12:12 | 7.78043 | 79.31491 | 15513 ft | 361 kts | 123° |
| 2026-05-01 12:13 | 7.76593 | 79.33546 | 14926 ft | 357 kts | 123° |
| 2026-05-01 12:13 | 7.75161 | 79.35575 | 14316 ft | 355 kts | 123° |
| 2026-05-01 12:13 | 7.73736 | 79.37592 | 13750 ft | 351 kts | 123° |
| 2026-05-01 12:13 | 7.72324 | 79.39588 | 13168 ft | 347 kts | 123° |
| 2026-05-01 12:14 | 7.70929 | 79.41565 | 12760 ft | 353 kts | 123° |
| 2026-05-01 12:14 | 7.69450 | 79.43669 | 12166 ft | 380 kts | 123° |
| 2026-05-01 12:14 | 7.67908 | 79.45859 | 11557 ft | 385 kts | 124° |
| 2026-05-01 12:14 | 7.66351 | 79.48058 | 10980 ft | 384 kts | 124° |
| 2026-05-01 12:15 | 7.64816 | 79.50223 | 10577 ft | 372 kts | 124° |
| 2026-05-01 12:15 | 7.63352 | 79.52289 | 10377 ft | 352 kts | 124° |
| 2026-05-01 12:15 | 7.61994 | 79.54208 | 10154 ft | 328 kts | 124° |
| 2026-05-01 12:15 | 7.60720 | 79.56009 | 9879 ft | 306 kts | 124° |
| 2026-05-01 12:16 | 7.59504 | 79.57733 | 9186 ft | 299 kts | 125° |
| 2026-05-01 12:16 | 7.58320 | 79.59409 | 8736 ft | 288 kts | 124° |
| 2026-05-01 12:16 | 7.57142 | 79.61076 | 8603 ft | 294 kts | 125° |
| 2026-05-01 12:16 | 7.55959 | 79.62749 | 8459 ft | 292 kts | 125° |
| 2026-05-01 12:17 | 7.55179 | 79.63851 | 8360 ft | 291 kts | 125° |
| 2026-05-01 12:17 | 7.54003 | 79.65514 | 7984 ft | 291 kts | 125° |
| 2026-05-01 12:17 | 7.52453 | 79.67707 | 7461 ft | 282 kts | 126° |
| 2026-05-01 12:17 | 7.51707 | 79.68761 | 7224 ft | 276 kts | 126° |
| 2026-05-01 12:18 | 7.50264 | 79.70802 | 6747 ft | 263 kts | 126° |
| 2026-05-01 12:18 | 7.49221 | 79.72277 | 6394 ft | 260 kts | 126° |
| 2026-05-01 12:18 | 7.48122 | 79.73830 | 6029 ft | 279 kts | 126° |
| 2026-05-01 12:18 | 7.47377 | 79.74880 | 5857 ft | 277 kts | 126° |
| 2026-05-01 12:19 | 7.45914 | 79.76949 | 5321 ft | 267 kts | 127° |
| 2026-05-01 12:19 | 7.44846 | 79.78455 | 4904 ft | 258 kts | 127° |
| 2026-05-01 12:19 | 7.44166 | 79.79419 | 4665 ft | 251 kts | 127° |
| 2026-05-01 12:19 | 7.42780 | 79.81380 | 4193 ft | 263 kts | 127° |
| 2026-05-01 12:20 | 7.42081 | 79.82367 | 3999 ft | 259 kts | 128° |
| 2026-05-01 12:20 | 7.41060 | 79.83808 | 3917 ft | 251 kts | 128° |
| 2026-05-01 12:20 | 7.40020 | 79.85273 | 3730 ft | 260 kts | 128° |
| 2026-05-01 12:20 | 7.38977 | 79.86747 | 3537 ft | 257 kts | 128° |
| 2026-05-01 12:21 | 7.37936 | 79.88212 | 3353 ft | 258 kts | 127° |
| 2026-05-01 12:21 | 7.36565 | 79.90141 | 3119 ft | 250 kts | 127° |
| 2026-05-01 12:21 | 7.35586 | 79.91553 | 2904 ft | 242 kts | 124° |
| 2026-05-01 12:21 | 7.34735 | 79.93051 | 2738 ft | 248 kts | 122° |
| 2026-05-01 12:22 | 7.34173 | 79.94052 | 2613 ft | 247 kts | 122° |
| 2026-05-01 12:22 | 7.33330 | 79.95542 | 2505 ft | 245 kts | 122° |
| 2026-05-01 12:22 | 7.32383 | 79.96949 | 2434 ft | 236 kts | 139° |
| 2026-05-01 12:22 | 7.31011 | 79.97604 | 2332 ft | 209 kts | 177° |
| 2026-05-01 12:23 | 7.29693 | 79.97317 | 2282 ft | 186 kts | 206° |
| 2026-05-01 12:23 | 7.28638 | 79.96664 | 2161 ft | 170 kts | 216° |
| 2026-05-01 12:23 | 7.27756 | 79.95993 | 1971 ft | 149 kts | 218° |
| 2026-05-01 12:23 | 7.26958 | 79.95364 | 1788 ft | 147 kts | 217° |
| 2026-05-01 12:24 | 7.26177 | 79.94707 | 1458 ft | 143 kts | 221° |
| 2026-05-01 12:24 | 7.25468 | 79.94024 | 1132 ft | 144 kts | 222° |
| 2026-05-01 12:24 | 7.24676 | 79.93413 | 875 ft | 138 kts | 217° |
| 2026-05-01 12:24 | 7.23910 | 79.92825 | 762 ft | 141 kts | 218° |
| 2026-05-01 12:25 | 7.23158 | 79.92240 | 694 ft | 136 kts | 218° |
| 2026-05-01 12:25 | 7.21660 | 79.91055 | 519 ft | 141 kts | 218° |
| 2026-05-01 12:25 | 7.20857 | 79.90484 | 393 ft | 141 kts | 219° |
| 2026-05-01 12:26 | 7.20067 | 79.89880 | 226 ft | 145 kts | 219° |
| 2026-05-01 12:26 | 7.18550 | 79.88719 | 43 ft | 119 kts | 216° |
| 2026-05-01 12:26 | 7.18138 | 79.88404 | 40 ft | 37 kts | 217° |
| 2026-05-01 12:27 | 7.17953 | 79.88263 | 41 ft | 26 kts | 216° |
| 2026-05-01 12:27 | 7.17831 | 79.88295 | 41 ft | 10 kts | 123° |
| 2026-05-01 12:28 | 7.17695 | 79.88288 | 39 ft | 12 kts | 216° |
| 2026-05-01 12:28 | 7.17671 | 79.88270 | 40 ft | 1 kts | 214° |
| 2026-05-01 12:28 | 7.17612 | 79.88289 | 40 ft | 7 kts | 134° |
| 2026-05-01 12:29 | 7.17578 | 79.88331 | 40 ft | 9 kts | 129° |
| 2026-05-01 12:29 | 7.17536 | 79.88385 | 39 ft | 10 kts | 128° |
| 2026-05-01 12:29 | 7.17490 | 79.88408 | 39 ft | 2 kts | 190° |
| 2026-05-01 12:30 | 7.17450 | 79.88382 | 39 ft | 0 kts | 216° |
| 2026-05-01 12:30 | 7.17448 | 79.88381 | 39 ft | 0 kts | 216° |
| 2026-05-01 12:30 | 7.17447 | 79.88380 | 39 ft | 0 kts | 216° |
| 2026-05-01 12:31 | 7.17444 | 79.88378 | 39 ft | 1 kts | 216° |
| 2026-05-01 12:31 | 7.17442 | 79.88376 | 39 ft | 0 kts | 217° |